Terminal Aerodrome Forecast
Issued by NWS Wilmington, NC

Home | Current Version | Previous Version | Text Only | Print | Product List | Glossary On
Versions: 1 2 3 4 5 6 7 8 9 10 11 12 13 14 15 16 17 18 19
768
FTUS42 KILM 170521
TAFILM
TAF
KILM 170521Z 1706/1806 00000KT P6SM SCT070
     FM171600 16005KT P6SM VCTS BKN040CB
     FM172300 17005KT P6SM BKN050
     FM180300 18005KT P6SM SCT060=

USA.gov is the U.S. government's official web portal to all federal, state and local government web resources and services.